createdAt,value
2019-01-28T00:01:50.856Z,-0.45
2019-01-28T00:04:18.429Z,-0.37
2019-01-28T00:06:45.877Z,-0.44
2019-01-28T00:09:13.258Z,-0.37
2019-01-28T00:11:40.683Z,-0.26
2019-01-28T00:14:14.077Z,0.10
2019-01-28T00:16:41.492Z,-0.06
2019-01-28T00:19:08.899Z,-0.24
2019-01-28T00:21:36.362Z,0.04
2019-01-28T00:24:04.324Z,0.14
2019-01-28T00:26:31.728Z,0.15
2019-01-28T00:28:59.306Z,0.38
2019-01-28T00:31:26.808Z,0.28
2019-01-28T00:33:54.315Z,0.24
2019-01-28T00:36:21.694Z,0.17
2019-01-28T00:38:49.228Z,-0.08
2019-01-28T00:41:16.651Z,-0.05
2019-01-28T00:43:44.002Z,-0.05
2019-01-28T00:46:11.425Z,0.08
2019-01-28T00:48:38.951Z,0.01
2019-01-28T00:51:06.333Z,0.41
2019-01-28T00:53:33.783Z,0.37
2019-01-28T00:56:01.204Z,0.07
2019-01-28T00:58:28.560Z,0.06
2019-01-28T01:00:55.984Z,0.49
2019-01-28T01:03:23.418Z,0.37
2019-01-28T01:05:51.253Z,0.63
2019-01-28T01:08:18.673Z,0.31
2019-01-28T01:10:46.095Z,0.22
2019-01-28T01:13:13.477Z,0.45
2019-01-28T01:15:41.023Z,-0.17
2019-01-28T01:18:08.535Z,-0.39
2019-01-28T01:20:36.116Z,-0.48
2019-01-28T01:23:03.532Z,0.15
2019-01-28T01:25:30.978Z,-0.13
2019-01-28T01:27:58.457Z,-0.42
2019-01-28T01:30:26.040Z,-0.26
2019-01-28T01:32:53.435Z,-0.04
2019-01-28T01:35:20.868Z,0.06
2019-01-28T01:37:48.293Z,0.16
2019-01-28T01:40:16.002Z,0.27
2019-01-28T01:42:43.965Z,0.26
2019-01-28T01:45:13.309Z,0.30
2019-01-28T01:47:40.739Z,0.08
2019-01-28T01:50:08.632Z,0.04
2019-01-28T01:52:36.050Z,0.24
2019-01-28T01:55:04.607Z,0.06
2019-01-28T01:57:32.050Z,0.08
2019-01-28T01:59:59.503Z,-0.12
2019-01-28T02:02:33.329Z,0.06
2019-01-28T02:04:56.267Z,-0.53
2019-01-28T02:07:23.650Z,-0.26
2019-01-28T02:09:51.081Z,-0.33
2019-01-28T02:12:18.546Z,-0.31
2019-01-28T02:14:45.961Z,-0.27
2019-01-28T02:17:13.430Z,-0.27
2019-01-28T02:19:40.849Z,-0.38
2019-01-28T02:22:08.271Z,-0.20
2019-01-28T02:24:35.738Z,0.28
2019-01-28T02:27:03.231Z,0.15
2019-01-28T02:29:30.680Z,0.48
2019-01-28T02:31:59.067Z,0.44
2019-01-28T02:34:26.430Z,0.29
2019-01-28T02:36:53.855Z,0.33
2019-01-28T02:39:21.277Z,0.42
2019-01-28T02:41:48.654Z,0.72
2019-01-28T02:44:16.098Z,0.80
2019-01-28T02:46:43.518Z,1.11
2019-01-28T02:49:10.973Z,1.01
2019-01-28T02:51:38.512Z,0.96
2019-01-28T02:54:05.953Z,1.13
2019-01-28T02:56:33.400Z,1.18
2019-01-28T02:59:00.785Z,1.56
2019-01-28T03:01:28.257Z,1.49
2019-01-28T03:03:55.725Z,1.51
2019-01-28T03:06:23.106Z,1.73
2019-01-28T03:08:50.577Z,1.37
2019-01-28T03:11:18.045Z,1.27
2019-01-28T03:13:45.531Z,0.90
2019-01-28T03:16:12.922Z,0.69
2019-01-28T03:18:40.530Z,0.62
2019-01-28T03:21:08.079Z,0.19
2019-01-28T03:23:35.546Z,0.21
2019-01-28T03:26:03.052Z,0.43
2019-01-28T03:28:30.476Z,0.60
2019-01-28T03:30:58.002Z,0.39
2019-01-28T03:33:25.603Z,-0.02
2019-01-28T03:35:53.046Z,-0.03
2019-01-28T03:38:20.611Z,0.10
2019-01-28T03:40:48.045Z,0.11
2019-01-28T03:43:15.489Z,0.27
2019-01-28T03:45:42.967Z,0.51
2019-01-28T03:48:10.567Z,0.47
2019-01-28T03:50:37.948Z,0.52
2019-01-28T03:53:05.661Z,0.74
2019-01-28T03:55:33.173Z,0.75
2019-01-28T03:58:00.735Z,0.77
2019-01-28T04:00:28.324Z,0.83
2019-01-28T04:02:55.779Z,1.24
2019-01-28T04:05:23.426Z,1.47
2019-01-28T04:07:50.849Z,1.16
2019-01-28T04:10:20.548Z,0.51
2019-01-28T04:12:48.685Z,0.32
2019-01-28T04:15:17.378Z,0.10
2019-01-28T04:17:44.837Z,0.25
2019-01-28T04:20:13.712Z,-0.21
2019-01-28T04:22:41.144Z,-0.31
2019-01-28T04:25:09.730Z,-0.15
2019-01-28T04:27:37.337Z,-0.18
2019-01-28T04:30:08.331Z,-0.05
2019-01-28T04:32:35.815Z,-0.22
2019-01-28T04:35:04.382Z,-0.03
2019-01-28T04:37:31.867Z,-0.32
2019-01-28T04:39:59.369Z,-0.29
2019-01-28T04:42:26.819Z,0.31
2019-01-28T04:44:54.284Z,0.26
2019-01-28T04:47:21.791Z,0.29
2019-01-28T04:49:49.336Z,0.29
2019-01-28T04:52:16.831Z,0.42
2019-01-28T04:54:44.323Z,0.52
2019-01-28T04:57:11.726Z,0.46
2019-01-28T04:59:39.229Z,0.64
2019-01-28T05:02:06.732Z,0.96
2019-01-28T05:04:34.217Z,0.83
2019-01-28T05:07:01.651Z,0.81
2019-01-28T05:09:29.088Z,0.68
2019-01-28T05:11:56.618Z,0.32
2019-01-28T05:14:24.066Z,0.31
2019-01-28T05:16:51.447Z,0.70
2019-01-28T05:19:18.942Z,0.59
2019-01-28T05:21:46.445Z,0.54
2019-01-28T05:24:13.882Z,0.71
2019-01-28T05:26:41.444Z,0.95
2019-01-28T05:29:08.850Z,0.78
2019-01-28T05:31:36.337Z,0.52
2019-01-28T05:34:04.054Z,0.52
2019-01-28T05:36:31.661Z,0.53
2019-01-28T05:38:59.181Z,0.68
2019-01-28T05:41:26.671Z,0.23
2019-01-28T05:43:54.149Z,0.33
2019-01-28T05:46:21.673Z,0.43
2019-01-28T05:48:49.170Z,0.40
2019-01-28T05:51:16.653Z,0.82
2019-01-28T05:53:44.164Z,0.78
2019-01-28T05:56:11.603Z,0.66
2019-01-28T05:58:39.058Z,0.60
2019-01-28T06:01:06.599Z,0.76
2019-01-28T06:03:34.133Z,0.64
2019-01-28T06:06:01.624Z,0.82
2019-01-28T06:08:29.056Z,0.81
2019-01-28T06:10:56.523Z,0.94
2019-01-28T06:13:23.985Z,0.90
2019-01-28T06:15:51.472Z,1.06
2019-01-28T06:18:18.828Z,1.39
2019-01-28T06:20:46.274Z,1.38
2019-01-28T06:23:13.767Z,1.37
2019-01-28T06:25:41.156Z,1.27
2019-01-28T06:28:08.745Z,1.29
2019-01-28T06:30:36.189Z,1.52
2019-01-28T06:33:03.944Z,1.44
2019-01-28T06:35:31.356Z,1.54
2019-01-28T06:37:59.056Z,1.65
2019-01-28T06:40:29.386Z,1.88
2019-01-28T06:42:56.900Z,1.75
2019-01-28T06:45:24.525Z,1.88
2019-01-28T06:47:52.206Z,1.85
2019-01-28T06:50:20.276Z,1.97
2019-01-28T06:52:47.762Z,2.00
2019-01-28T06:55:15.362Z,2.04
2019-01-28T06:57:42.959Z,1.98
2019-01-28T07:00:31.549Z,1.20
2019-01-28T07:02:59.430Z,1.62
2019-01-28T07:05:27.115Z,1.72
2019-01-28T07:07:54.610Z,1.81
2019-01-28T07:10:22.186Z,2.02
2019-01-28T07:12:49.721Z,1.37
2019-01-28T07:15:17.830Z,1.76
2019-01-28T07:17:45.389Z,2.06
2019-01-28T07:20:23.354Z,1.83
2019-01-28T07:22:50.879Z,2.10
2019-01-28T07:25:18.455Z,2.08
2019-01-28T07:27:45.885Z,2.15
2019-01-28T07:30:17.227Z,2.25
2019-01-28T07:32:44.675Z,2.47
2019-01-28T07:35:12.362Z,2.28
2019-01-28T07:37:39.898Z,2.29
2019-01-28T07:40:08.339Z,2.51
2019-01-28T07:42:35.863Z,2.41
2019-01-28T07:45:04.343Z,2.47
2019-01-28T07:47:31.722Z,2.56
2019-01-28T07:49:59.184Z,2.55
2019-01-28T07:52:26.914Z,2.75
2019-01-28T07:54:54.288Z,2.84
2019-01-28T07:57:21.730Z,2.87
2019-01-28T07:59:49.178Z,2.73
2019-01-28T08:02:16.565Z,2.93
2019-01-28T08:04:43.982Z,2.94
2019-01-28T08:07:11.499Z,2.92
2019-01-28T08:09:38.895Z,3.18
2019-01-28T08:12:06.438Z,3.38
2019-01-28T08:14:33.973Z,3.50
2019-01-28T08:17:01.355Z,3.71
2019-01-28T08:19:28.784Z,3.77
2019-01-28T08:21:56.402Z,4.06
2019-01-28T08:24:24.023Z,4.15
2019-01-28T08:26:51.585Z,4.09
2019-01-28T08:29:19.105Z,4.20
2019-01-28T08:31:46.538Z,4.12
2019-01-28T08:34:13.916Z,3.88
2019-01-28T08:36:41.345Z,3.58
2019-01-28T08:39:09.206Z,3.76
2019-01-28T08:41:36.799Z,3.96
2019-01-28T08:44:04.614Z,4.09
2019-01-28T08:46:32.138Z,4.29
2019-01-28T08:48:59.547Z,4.55
2019-01-28T08:51:27.093Z,4.45
2019-01-28T08:53:54.520Z,4.30
2019-01-28T08:56:23.353Z,4.17
2019-01-28T08:58:50.958Z,3.98
2019-01-28T09:01:18.580Z,4.06
2019-01-28T09:03:45.954Z,4.38
2019-01-28T09:06:13.377Z,4.71
2019-01-28T09:08:40.775Z,5.00
2019-01-28T09:11:08.286Z,4.85
2019-01-28T09:13:35.646Z,4.99
2019-01-28T09:16:03.243Z,4.84
2019-01-28T09:18:30.644Z,4.50
2019-01-28T09:20:58.015Z,4.29
2019-01-28T09:23:25.496Z,4.45
2019-01-28T09:25:53.111Z,4.75
2019-01-28T09:28:20.482Z,4.99
2019-01-28T09:30:48.957Z,5.23
2019-01-28T09:33:16.625Z,5.12
2019-01-28T09:35:44.031Z,5.18
2019-01-28T09:38:11.385Z,5.08
2019-01-28T09:40:38.805Z,5.00
2019-01-28T09:43:06.891Z,4.97
2019-01-28T09:45:36.902Z,5.08
2019-01-28T09:48:05.065Z,5.47
2019-01-28T09:50:32.671Z,5.68
2019-01-28T09:53:00.330Z,6.01
2019-01-28T09:55:27.915Z,5.83
2019-01-28T09:57:55.633Z,5.87
2019-01-28T10:00:26.575Z,6.23
2019-01-28T10:02:54.268Z,6.21
2019-01-28T10:05:22.117Z,6.17
2019-01-28T10:07:49.579Z,6.04
2019-01-28T10:10:17.387Z,6.44
2019-01-28T10:12:45.138Z,6.94
2019-01-28T10:15:15.031Z,7.08
2019-01-28T10:17:42.441Z,7.22
2019-01-28T10:20:17.336Z,7.24
2019-01-28T10:22:44.882Z,7.09
2019-01-28T10:25:13.146Z,6.92
2019-01-28T10:27:40.709Z,6.71
2019-01-28T10:30:10.032Z,6.78
2019-01-28T10:32:37.502Z,6.81
2019-01-28T10:35:06.047Z,6.51
2019-01-28T10:37:33.686Z,6.30
2019-01-28T10:40:01.144Z,6.07
2019-01-28T10:42:28.597Z,6.05
2019-01-28T10:44:56.144Z,6.42
2019-01-28T10:47:23.645Z,6.69
2019-01-28T10:49:51.090Z,6.78
2019-01-28T10:52:18.604Z,6.99
2019-01-28T10:54:46.093Z,6.65
2019-01-28T10:57:14.013Z,6.73
2019-01-28T10:59:41.493Z,6.78
2019-01-28T11:02:09.379Z,7.06
2019-01-28T11:04:36.818Z,7.01
2019-01-28T11:07:04.289Z,6.82
2019-01-28T11:09:31.869Z,6.86
2019-01-28T11:11:59.390Z,6.71
2019-01-28T11:14:26.941Z,6.56
2019-01-28T11:16:54.427Z,6.57
2019-01-28T11:19:22.109Z,6.47
2019-01-28T11:21:49.633Z,6.48
2019-01-28T11:24:17.081Z,6.45
2019-01-28T11:26:44.565Z,6.29
2019-01-28T11:29:12.084Z,6.22
2019-01-28T11:31:39.610Z,6.19
2019-01-28T11:34:07.512Z,5.88
2019-01-28T11:36:35.231Z,5.96
2019-01-28T11:39:05.127Z,5.96
2019-01-28T11:41:32.971Z,5.86
2019-01-28T11:44:00.496Z,5.83
2019-01-28T11:46:28.175Z,6.32
2019-01-28T11:48:55.841Z,6.05
2019-01-28T11:51:23.322Z,6.15
2019-01-28T11:53:50.778Z,6.08
2019-01-28T11:56:18.260Z,6.34
2019-01-28T11:58:45.721Z,6.33
2019-01-28T12:01:32.186Z,6.34
2019-01-28T12:03:59.763Z,6.41
2019-01-28T12:06:27.551Z,6.13
2019-01-28T12:08:55.006Z,6.38
2019-01-28T12:11:22.462Z,6.34
2019-01-28T12:13:49.914Z,6.49
2019-01-28T12:16:17.413Z,6.57
2019-01-28T12:18:44.886Z,6.39
2019-01-28T12:21:12.578Z,6.19
2019-01-28T12:23:39.998Z,6.22
2019-01-28T12:26:07.437Z,5.86
2019-01-28T12:28:35.006Z,5.88
2019-01-28T12:31:02.707Z,6.09
2019-01-28T12:33:30.164Z,5.78
2019-01-28T12:35:58.195Z,5.62
2019-01-28T12:38:25.584Z,5.82
2019-01-28T12:40:53.026Z,5.75
2019-01-28T12:43:20.558Z,5.87
2019-01-28T12:45:48.036Z,5.81
2019-01-28T12:48:15.595Z,5.84
2019-01-28T12:50:43.155Z,5.82
2019-01-28T12:53:10.693Z,5.67
2019-01-28T12:55:38.138Z,5.77
2019-01-28T12:58:06.890Z,6.17
2019-01-28T13:00:40.083Z,6.31
2019-01-28T13:03:09.028Z,5.65
2019-01-28T13:05:36.713Z,5.53
2019-01-28T13:08:04.714Z,5.56
2019-01-28T13:10:32.274Z,5.43
2019-01-28T13:12:59.783Z,5.65
2019-01-28T13:15:27.953Z,5.21
2019-01-28T13:17:55.962Z,5.20
2019-01-28T13:20:24.038Z,5.12
2019-01-28T13:22:51.721Z,4.92
2019-01-28T13:25:20.285Z,4.88
2019-01-28T13:27:47.783Z,5.06
2019-01-28T13:30:20.666Z,5.09
2019-01-28T13:32:49.783Z,5.04
2019-01-28T13:35:17.557Z,4.84
2019-01-28T13:37:45.012Z,4.82
2019-01-28T13:40:13.949Z,4.99
2019-01-28T13:42:41.450Z,5.06
2019-01-28T13:45:10.361Z,5.44
2019-01-28T13:47:38.186Z,5.38
2019-01-28T13:50:08.665Z,5.23
2019-01-28T13:52:36.193Z,5.07
2019-01-28T13:55:04.399Z,4.95
2019-01-28T13:57:31.843Z,4.84
2019-01-28T13:59:59.246Z,5.00
2019-01-28T14:02:26.747Z,4.82
2019-01-28T14:04:54.164Z,5.10
2019-01-28T14:07:21.757Z,4.95
2019-01-28T14:09:49.304Z,5.29
2019-01-28T14:12:16.751Z,5.25
2019-01-28T14:14:44.320Z,5.34
2019-01-28T14:17:11.714Z,5.24
2019-01-28T14:19:46.215Z,5.33
2019-01-28T14:22:08.491Z,5.46
2019-01-28T14:24:35.945Z,5.67
2019-01-28T14:27:03.542Z,5.63
2019-01-28T14:29:31.242Z,5.27
2019-01-28T14:31:58.883Z,4.82
2019-01-28T14:34:26.446Z,4.67
2019-01-28T14:36:54.056Z,4.88
2019-01-28T14:39:21.532Z,5.10
2019-01-28T14:41:48.994Z,4.90
2019-01-28T14:44:16.451Z,4.84
2019-01-28T14:46:43.987Z,4.80
2019-01-28T14:49:11.624Z,5.17
2019-01-28T14:51:39.196Z,5.31
2019-01-28T14:54:06.649Z,5.35
2019-01-28T14:56:34.144Z,5.42
2019-01-28T14:59:01.520Z,5.49
2019-01-28T15:01:29.001Z,5.72
2019-01-28T15:03:56.506Z,5.94
2019-01-28T15:06:23.960Z,5.91
2019-01-28T15:08:51.380Z,6.04
2019-01-28T15:11:18.828Z,5.84
2019-01-28T15:13:46.226Z,5.93
2019-01-28T15:16:14.261Z,5.86
2019-01-28T15:18:41.733Z,5.82
2019-01-28T15:21:09.087Z,5.65
2019-01-28T15:23:36.535Z,5.43
2019-01-28T15:26:04.088Z,5.74
2019-01-28T15:28:31.518Z,5.61
2019-01-28T15:30:58.934Z,5.86
2019-01-28T15:33:26.458Z,5.83
2019-01-28T15:35:53.940Z,5.99
2019-01-28T15:38:21.432Z,6.20
2019-01-28T15:40:49.051Z,6.03
2019-01-28T15:43:16.577Z,5.66
2019-01-28T15:45:44.348Z,5.78
2019-01-28T15:48:11.960Z,5.63
2019-01-28T15:50:39.472Z,5.38
2019-01-28T15:53:07.938Z,5.37
2019-01-28T15:55:37.333Z,5.25
2019-01-28T15:58:05.857Z,5.05
2019-01-28T16:00:33.735Z,4.74
2019-01-28T16:03:01.925Z,4.84
2019-01-28T16:05:29.574Z,4.75
2019-01-28T16:07:57.019Z,4.71
2019-01-28T16:10:24.557Z,4.76
2019-01-28T16:12:52.171Z,4.54
2019-01-28T16:15:25.435Z,4.41
2019-01-28T16:17:52.916Z,4.32
2019-01-28T16:20:20.497Z,4.21
2019-01-28T16:22:48.463Z,4.01
2019-01-28T16:25:16.133Z,4.05
2019-01-28T16:27:43.727Z,4.24
2019-01-28T16:30:16.940Z,4.08
2019-01-28T16:32:44.543Z,4.02
2019-01-28T16:35:13.046Z,4.46
2019-01-28T16:37:40.421Z,4.40
2019-01-28T16:40:10.351Z,4.24
2019-01-28T16:42:38.699Z,4.31
2019-01-28T16:45:07.354Z,4.19
2019-01-28T16:47:34.794Z,4.13
2019-01-28T16:50:02.276Z,4.16
2019-01-28T16:52:29.690Z,4.33
2019-01-28T16:54:57.157Z,4.02
2019-01-28T16:57:24.703Z,3.97
2019-01-28T16:59:52.401Z,4.35
2019-01-28T17:02:20.259Z,4.41
2019-01-28T17:04:47.726Z,4.31
2019-01-28T17:07:15.171Z,4.40
2019-01-28T17:09:42.603Z,4.31
2019-01-28T17:12:10.115Z,4.29
2019-01-28T17:14:37.597Z,4.28
2019-01-28T17:17:05.065Z,4.53
2019-01-28T17:19:32.649Z,4.64
2019-01-28T17:22:00.107Z,4.54
2019-01-28T17:24:27.543Z,4.33
2019-01-28T17:26:55.071Z,4.25
2019-01-28T17:29:22.493Z,4.24
2019-01-28T17:31:49.982Z,4.19
2019-01-28T17:34:17.876Z,4.01
2019-01-28T17:36:45.537Z,4.16
2019-01-28T17:39:13.069Z,4.50
2019-01-28T17:41:40.697Z,4.28
2019-01-28T17:44:08.157Z,4.60
2019-01-28T17:46:35.557Z,4.69
2019-01-28T17:49:03.143Z,4.51
2019-01-28T17:51:30.743Z,4.67
2019-01-28T17:53:58.170Z,4.50
2019-01-28T17:56:25.615Z,4.47
2019-01-28T17:58:53.061Z,4.73
2019-01-28T18:01:20.527Z,4.15
2019-01-28T18:03:47.953Z,4.31
2019-01-28T18:06:16.243Z,4.63
2019-01-28T18:08:43.710Z,4.35
2019-01-28T18:11:11.195Z,4.09
2019-01-28T18:13:38.694Z,4.56
2019-01-28T18:16:06.279Z,4.45
2019-01-28T18:18:33.725Z,4.21
2019-01-28T18:21:01.221Z,4.49
2019-01-28T18:24:00.170Z,4.62
2019-01-28T18:26:27.922Z,4.89
2019-01-28T18:28:55.391Z,4.80
2019-01-28T18:31:22.848Z,5.03
2019-01-28T18:33:50.295Z,5.07
2019-01-28T18:36:17.825Z,5.00
2019-01-28T18:38:45.474Z,5.12
2019-01-28T18:41:12.951Z,5.14
2019-01-28T18:43:40.341Z,5.11
2019-01-28T18:46:07.796Z,5.22
2019-01-28T18:48:35.254Z,5.19
2019-01-28T18:51:02.871Z,4.71
2019-01-28T18:53:30.327Z,4.49
2019-01-28T18:55:57.780Z,4.73
2019-01-28T18:58:25.273Z,5.11
2019-01-28T19:00:52.724Z,5.00
2019-01-28T19:03:20.276Z,5.02
2019-01-28T19:06:11.390Z,4.96
2019-01-28T19:08:50.045Z,5.07
2019-01-28T19:11:37.099Z,4.76
2019-01-28T19:14:23.221Z,4.84
2019-01-28T19:17:08.773Z,4.79
2019-01-28T19:20:10.786Z,4.87
2019-01-28T19:22:38.249Z,5.13
2019-01-28T19:25:07.402Z,5.39
2019-01-28T19:27:34.825Z,5.38
2019-01-28T19:30:02.291Z,4.94
2019-01-28T19:32:29.766Z,5.11
2019-01-28T19:34:57.189Z,5.11
2019-01-28T19:37:24.845Z,4.51
2019-01-28T19:39:52.515Z,4.63
2019-01-28T19:42:20.007Z,4.90
2019-01-28T19:44:47.563Z,4.66
2019-01-28T19:47:15.183Z,4.62
2019-01-28T19:49:42.639Z,4.88
2019-01-28T19:52:10.079Z,4.80
2019-01-28T19:54:37.582Z,4.38
2019-01-28T19:57:05.041Z,4.43
2019-01-28T19:59:32.525Z,4.34
2019-01-28T20:02:00.152Z,4.55
2019-01-28T20:04:28.539Z,4.57
2019-01-28T20:06:57.408Z,4.41
2019-01-28T20:09:25.320Z,4.46
2019-01-28T20:11:53.469Z,4.53
2019-01-28T20:14:21.345Z,4.61
2019-01-28T20:16:48.780Z,4.48
2019-01-28T20:19:16.351Z,4.46
2019-01-28T20:21:44.353Z,4.31
2019-01-28T20:24:11.867Z,4.37
2019-01-28T20:26:39.402Z,4.56
2019-01-28T20:29:07.045Z,4.81
2019-01-28T20:31:34.453Z,4.87
2019-01-28T20:34:01.831Z,4.70
2019-01-28T20:36:29.836Z,4.93
2019-01-28T20:38:57.847Z,5.17
2019-01-28T20:41:25.257Z,4.88
2019-01-28T20:43:53.322Z,4.70
2019-01-28T20:46:21.028Z,4.75
2019-01-28T20:48:48.501Z,4.84
2019-01-28T20:51:15.961Z,4.92
2019-01-28T20:53:43.898Z,5.16
2019-01-28T20:56:11.397Z,5.01
2019-01-28T20:58:39.014Z,4.75
2019-01-28T21:01:06.437Z,4.83
2019-01-28T21:03:34.179Z,4.82
2019-01-28T21:06:01.723Z,4.74
2019-01-28T21:08:29.554Z,4.72
2019-01-28T21:10:57.076Z,4.53
2019-01-28T21:13:24.636Z,4.81
2019-01-28T21:15:52.073Z,4.90
2019-01-28T21:18:19.412Z,4.85
2019-01-28T21:20:46.825Z,4.67
2019-01-28T21:23:14.245Z,4.50
2019-01-28T21:25:41.720Z,4.43
2019-01-28T21:28:09.091Z,4.23
2019-01-28T21:30:36.514Z,4.32
2019-01-28T21:33:04.029Z,4.27
2019-01-28T21:35:43.172Z,4.17
2019-01-28T21:38:13.580Z,4.08
2019-01-28T21:40:41.016Z,4.39
2019-01-28T21:43:08.437Z,4.34
2019-01-28T21:45:35.947Z,4.30
2019-01-28T21:48:04.069Z,4.35
2019-01-28T21:50:31.683Z,4.20
2019-01-28T21:52:59.082Z,3.92
2019-01-28T21:55:26.619Z,3.97
2019-01-28T21:57:54.030Z,3.81
2019-01-28T22:00:21.850Z,3.95
2019-01-28T22:02:49.218Z,4.09
2019-01-28T22:05:16.637Z,4.43
2019-01-28T22:07:44.201Z,4.37
2019-01-28T22:10:12.221Z,4.29
2019-01-28T22:12:39.745Z,4.17
2019-01-28T22:15:10.735Z,4.13
2019-01-28T22:17:38.169Z,4.08
2019-01-28T22:20:06.181Z,3.85
2019-01-28T22:22:33.655Z,3.94
2019-01-28T22:25:01.068Z,4.01
2019-01-28T22:27:28.743Z,4.06
2019-01-28T22:29:56.357Z,3.81
2019-01-28T22:32:23.790Z,3.97
2019-01-28T22:34:51.201Z,3.97
2019-01-28T22:37:18.674Z,4.24
2019-01-28T22:39:46.113Z,4.48
2019-01-28T22:42:21.057Z,4.50
2019-01-28T22:44:43.401Z,4.41
2019-01-28T22:47:10.857Z,4.42
2019-01-28T22:49:38.809Z,4.37
2019-01-28T22:52:07.947Z,4.54
2019-01-28T22:54:35.895Z,4.59
2019-01-28T22:57:03.584Z,4.59
2019-01-28T22:59:31.004Z,4.60
2019-01-28T23:01:58.429Z,4.83
2019-01-28T23:04:25.780Z,4.95
2019-01-28T23:06:53.193Z,5.23
2019-01-28T23:09:20.614Z,4.90
2019-01-28T23:11:47.973Z,4.90
2019-01-28T23:14:15.497Z,4.74
2019-01-28T23:16:43.032Z,4.85
2019-01-28T23:19:10.484Z,5.02
2019-01-28T23:21:37.909Z,4.98
2019-01-28T23:24:05.667Z,4.86
2019-01-28T23:26:33.033Z,4.91
2019-01-28T23:29:00.589Z,4.99
2019-01-28T23:31:28.003Z,4.65
2019-01-28T23:33:55.433Z,4.51
2019-01-28T23:36:22.850Z,4.66
2019-01-28T23:38:50.338Z,4.39
2019-01-28T23:41:17.787Z,4.16
2019-01-28T23:43:45.222Z,4.50
2019-01-28T23:46:12.697Z,4.62
2019-01-28T23:48:40.170Z,4.47
2019-01-28T23:51:07.626Z,4.59
2019-01-28T23:53:35.033Z,4.75
2019-01-28T23:56:02.564Z,4.51
2019-01-28T23:58:30.018Z,4.70
